Time;durP1;ratioP1;P1;durP2;ratioP2;P2;SDS_P1;SDS_P2;PMS_P1;PMS_P2;Temp;Humidity;BMP_temperature;BMP_pressure;BME280_temperature;BME280_humidity;BME280_pressure;Samples;Min_cycle;Max_cycle;Signal;HPM_P1;HPM_P2
2023/01/25 00:02:02;;;;;;;14.23;12.93;;;;;;;1.32;100.00;93817.09;5010784;28;20187;-75
2023/01/25 00:04:27;;;;;;;15.37;13.97;;;;;;;1.38;100.00;93821.50;5008745;28;20227;-76
2023/01/25 00:06:53;;;;;;;14.00;12.83;;;;;;;1.30;100.00;93811.38;5010195;28;20206;-76
2023/01/25 00:09:19;;;;;;;14.77;13.53;;;;;;;1.47;100.00;93817.75;5010008;28;20254;-76
2023/01/25 00:11:45;;;;;;;13.70;12.60;;;;;;;1.53;100.00;93813.59;5009219;28;20192;-76
2023/01/25 00:14:12;;;;;;;15.70;13.97;;;;;;;1.46;100.00;93815.38;5008845;28;20261;-76
2023/01/25 00:16:38;;;;;;;14.47;13.13;;;;;;;1.55;100.00;93812.44;5010205;28;20191;-76
2023/01/25 00:19:04;;;;;;;15.60;14.37;;;;;;;1.30;100.00;93806.22;5009611;28;20251;-76
2023/01/25 00:21:30;;;;;;;15.83;14.27;;;;;;;1.37;100.00;93811.41;5008734;28;20184;-76
2023/01/25 00:23:55;;;;;;;16.90;14.97;;;;;;;1.25;100.00;93798.28;5007958;28;20223;-76
2023/01/25 00:26:20;;;;;;;16.10;14.50;;;;;;;1.22;100.00;93787.59;5010558;28;20175;-76
2023/01/25 00:28:50;;;;;;;14.50;13.10;;;;;;;1.35;100.00;93809.00;5009798;28;20218;-76
2023/01/25 00:31:25;;;;;;;15.00;13.50;;;;;;;1.52;100.00;93812.03;5007818;28;20291;-78
2023/01/25 00:33:59;;;;;;;14.03;12.80;;;;;;;1.46;100.00;93810.22;5009381;28;20179;-76
2023/01/25 00:36:39;;;;;;;13.37;12.37;;;;;;;1.44;100.00;93814.78;5009660;28;20195;-76
2023/01/25 00:39:05;;;;;;;14.13;12.70;;;;;;;1.31;100.00;93810.38;5008782;28;20244;-77
2023/01/25 00:41:31;;;;;;;14.60;13.40;;;;;;;1.19;100.00;93814.50;5009685;28;20191;-76
2023/01/25 00:43:57;;;;;;;14.77;13.37;;;;;;;1.24;100.00;93817.28;5008897;28;20229;-76
2023/01/25 00:46:22;;;;;;;14.97;13.60;;;;;;;1.19;100.00;93796.50;5009565;28;20207;-76
2023/01/25 00:48:48;;;;;;;14.90;13.60;;;;;;;1.28;100.00;93802.25;5009654;28;20187;-76
2023/01/25 00:51:14;;;;;;;14.10;12.87;;;;;;;1.39;100.00;93799.13;5008676;28;20231;-76
2023/01/25 00:53:40;;;;;;;14.37;12.87;;;;;;;1.47;100.00;93797.19;5008784;28;20196;-76
2023/01/25 00:56:06;;;;;;;14.50;13.30;;;;;;;1.51;100.00;93821.50;5008802;28;20265;-76
2023/01/25 00:58:31;;;;;;;15.03;13.73;;;;;;;1.21;100.00;93796.31;5009419;28;20191;-76
2023/01/25 01:00:57;;;;;;;13.93;12.83;;;;;;;1.36;100.00;93805.44;5008490;28;20231;-76
2023/01/25 01:03:23;;;;;;;13.37;12.27;;;;;;;1.19;100.00;93801.63;5009664;28;20230;-76
2023/01/25 01:06:08;;;;;;;14.27;13.07;;;;;;;1.28;100.00;93808.19;5009027;28;20238;-76
2023/01/25 01:08:35;;;;;;;13.97;12.97;;;;;;;1.21;100.00;93802.25;5009147;28;21650;-75
2023/01/25 01:11:02;;;;;;;13.63;12.63;;;;;;;1.24;100.00;93809.56;5008681;28;20306;-76
2023/01/25 01:13:29;;;;;;;13.77;12.63;;;;;;;1.25;100.00;93816.31;5009465;28;20195;-76
2023/01/25 01:15:55;;;;;;;14.23;13.13;;;;;;;1.09;100.00;93790.13;5009227;28;20239;-76
2023/01/25 01:18:21;;;;;;;14.27;12.87;;;;;;;1.22;100.00;93816.69;5009674;28;20187;-76
2023/01/25 01:20:50;;;;;;;12.87;11.77;;;;;;;0.98;100.00;93795.81;5007493;28;20227;-76
2023/01/25 01:23:15;;;;;;;13.87;12.53;;;;;;;1.06;100.00;93804.16;5008478;28;20221;-76
2023/01/25 01:25:41;;;;;;;14.30;13.20;;;;;;;1.24;100.00;93812.16;5008908;28;20247;-76
2023/01/25 01:28:06;;;;;;;14.60;13.60;;;;;;;1.27;100.00;93808.38;5007465;28;20195;-76
2023/01/25 01:30:31;;;;;;;12.70;11.63;;;;;;;1.00;100.00;93779.22;5008397;28;20230;-76
2023/01/25 01:32:57;;;;;;;12.57;11.53;;;;;;;1.25;100.00;93805.22;5033071;28;20191;-76
2023/01/25 01:35:22;;;;;;;12.87;11.87;;;;;;;1.02;100.00;93774.69;5009172;28;20307;-76
2023/01/25 01:37:47;;;;;;;12.50;11.63;;;;;;;1.23;100.00;93802.81;5009634;28;20191;-76
2023/01/25 01:40:15;;;;;;;13.33;12.23;;;;;;;1.43;100.00;93805.47;5008500;28;20223;-75
2023/01/25 01:43:04;;;;;;;13.73;12.43;;;;;;;1.18;100.00;93782.03;5008954;28;20234;-76
2023/01/25 01:45:42;;;;;;;13.23;12.07;;;;;;;1.18;100.00;93797.47;5008055;28;20234;-76
2023/01/25 01:48:18;;;;;;;13.47;12.27;;;;;;;1.25;100.00;93793.16;5009058;28;20183;-77
2023/01/25 01:50:44;;;;;;;13.40;12.40;;;;;;;1.17;100.00;93785.59;5007826;28;20258;-76
2023/01/25 01:53:09;;;;;;;13.17;12.13;;;;;;;0.94;100.00;93743.19;5008322;28;20182;-76
2023/01/25 01:55:36;;;;;;;11.83;10.83;;;;;;;1.20;100.00;93787.78;5008790;28;20268;-76
2023/01/25 01:58:02;;;;;;;13.47;12.20;;;;;;;1.20;100.00;93789.56;5006710;28;20203;-76
2023/01/25 02:00:33;;;;;;;13.00;12.10;;;;;;;1.25;100.00;93777.72;5007913;28;20243;-76
2023/01/25 02:02:59;;;;;;;13.73;12.53;;;;;;;1.30;100.00;93790.78;5009172;28;20250;-76
2023/01/25 02:05:43;;;;;;;12.40;11.40;;;;;;;1.15;100.00;93786.78;5006772;28;20223;-76
2023/01/25 02:08:12;;;;;;;11.87;10.93;;;;;;;1.18;100.00;93792.31;5010795;28;20226;-76
2023/01/25 02:10:38;;;;;;;12.07;11.03;;;;;;;1.16;100.00;93789.16;5012572;28;20242;-75
2023/01/25 02:13:04;;;;;;;13.27;12.20;;;;;;;1.09;100.00;93772.13;5011654;28;20198;-76
2023/01/25 02:15:39;;;;;;;12.43;11.47;;;;;;;1.35;100.00;93793.56;5005090;28;20252;-76
2023/01/25 02:18:05;;;;;;;12.37;11.57;;;;;;;1.21;100.00;93750.81;5008073;28;20183;-76
2023/01/25 02:20:42;;;;;;;11.70;10.90;;;;;;;1.31;100.00;93789.81;5007940;28;20243;-76
2023/01/25 02:23:32;;;;;;;12.50;11.33;;;;;;;1.01;100.00;93785.16;5009197;28;20220;-76
2023/01/25 02:26:02;;;;;;;11.33;10.53;;;;;;;1.11;100.00;93775.28;5008026;28;20223;-76
2023/01/25 02:28:30;;;;;;;12.03;11.23;;;;;;;1.06;100.00;93788.72;5008508;28;20195;-77
2023/01/25 02:30:55;;;;;;;10.53;9.90;;;;;;;1.03;100.00;93785.72;5007815;28;20224;-76
2023/01/25 02:33:23;;;;;;;11.10;10.40;;;;;;;1.05;100.00;93792.28;5008509;28;20211;-76
2023/01/25 02:35:55;;;;;;;12.00;11.20;;;;;;;1.17;100.00;93789.94;5009091;28;20290;-77
2023/01/25 02:38:20;;;;;;;11.17;10.57;;;;;;;1.01;100.00;93787.72;5009530;28;20184;-76
2023/01/25 02:41:01;;;;;;;11.23;10.53;;;;;;;1.09;100.00;93788.34;5007081;28;20245;-76
2023/01/25 02:43:28;;;;;;;11.83;11.07;;;;;;;1.13;100.00;93789.56;5006268;28;20278;-75
2023/01/25 02:46:10;;;;;;;11.17;10.53;;;;;;;1.08;100.00;93784.19;5007773;28;20255;-77
2023/01/25 02:48:35;;;;;;;11.10;10.20;;;;;;;0.88;100.00;93755.03;5006444;28;20192;-77
2023/01/25 02:51:01;;;;;;;11.83;11.13;;;;;;;1.10;100.00;93777.09;5005765;28;20242;-77
2023/01/25 02:53:26;;;;;;;11.60;10.80;;;;;;;0.77;100.00;93758.16;5007536;28;20194;-77
2023/01/25 02:55:52;;;;;;;10.43;9.53;;;;;;;0.95;100.00;93776.41;5008981;28;20242;-77
2023/01/25 02:58:17;;;;;;;10.90;10.20;;;;;;;0.97;100.00;93784.75;5009130;28;20184;-76
2023/01/25 03:00:43;;;;;;;11.00;10.30;;;;;;;1.13;100.00;93791.31;5006824;28;20228;-75
2023/01/25 03:03:08;;;;;;;10.77;10.17;;;;;;;1.16;100.00;93790.94;5008342;28;20223;-75
2023/01/25 03:05:33;;;;;;;11.03;10.43;;;;;;;1.14;100.00;93796.28;5006103;28;20279;-75
2023/01/25 03:07:59;;;;;;;10.60;10.00;;;;;;;1.04;100.00;93775.25;5006964;28;20291;-75
2023/01/25 03:10:24;;;;;;;10.87;10.23;;;;;;;1.15;100.00;93787.56;5008455;28;20249;-75
2023/01/25 03:12:49;;;;;;;9.93;9.43;;;;;;;1.10;100.00;93789.94;5011146;28;20180;-76
2023/01/25 03:15:15;;;;;;;11.37;10.53;;;;;;;1.17;100.00;93785.59;5007344;28;20227;-76
2023/01/25 03:17:40;;;;;;;11.47;10.77;;;;;;;1.24;100.00;93786.44;5005789;28;20282;-74
2023/01/25 03:20:06;;;;;;;12.13;11.43;;;;;;;1.08;100.00;93760.25;5008886;28;20246;-78
2023/01/25 03:22:31;;;;;;;11.50;10.70;;;;;;;1.30;100.00;93780.50;5009406;28;20211;-78
2023/01/25 03:24:57;;;;;;;11.87;11.00;;;;;;;1.17;100.00;93762.47;5010580;28;20238;-78
2023/01/25 03:27:22;;;;;;;11.27;10.57;;;;;;;1.23;100.00;93784.81;5010468;28;20198;-77
2023/01/25 03:29:48;;;;;;;11.60;10.63;;;;;;;1.20;100.00;93786.97;5010626;28;20235;-78
2023/01/25 03:32:13;;;;;;;10.27;9.77;;;;;;;1.16;100.00;93786.59;5009518;28;20211;-77
2023/01/25 03:34:42;;;;;;;10.77;10.17;;;;;;;1.12;100.00;93769.19;5009803;28;20702;-76
2023/01/25 03:37:07;;;;;;;11.23;10.63;;;;;;;1.23;100.00;93782.25;5008700;28;22115;-77
2023/01/25 03:39:32;;;;;;;10.87;10.23;;;;;;;1.10;100.00;93753.16;5009208;28;20228;-77
2023/01/25 03:41:58;;;;;;;11.20;10.50;;;;;;;1.17;100.00;93765.03;5009753;28;20195;-77
2023/01/25 03:44:23;;;;;;;11.50;10.87;;;;;;;1.23;100.00;93769.41;5009106;28;20487;-76
2023/01/25 03:46:49;;;;;;;11.07;10.47;;;;;;;1.13;100.00;93752.75;5011208;28;20179;-77
2023/01/25 03:49:14;;;;;;;11.37;10.70;;;;;;;1.20;100.00;93769.78;5009876;28;20227;-76
2023/01/25 03:51:39;;;;;;;11.67;10.97;;;;;;;1.26;100.00;93774.16;5008959;28;20227;-76
2023/01/25 03:54:07;;;;;;;11.93;11.23;;;;;;;1.17;100.00;93770.16;5009515;28;20218;-76
2023/01/25 03:56:32;;;;;;;11.43;10.73;;;;;;;1.13;100.00;93758.69;5011548;28;20251;-76
2023/01/25 03:58:57;;;;;;;12.07;11.27;;;;;;;1.30;100.00;93770.22;5010239;28;20196;-77
2023/01/25 04:01:23;;;;;;;11.27;10.67;;;;;;;1.22;100.00;93767.00;5010690;28;20337;-77
2023/01/25 04:03:48;;;;;;;10.37;9.87;;;;;;;1.12;100.00;93767.38;5010801;28;20219;-75
2023/01/25 04:06:13;;;;;;;11.67;10.97;;;;;;;1.18;100.00;93770.97;5009764;28;20223;-76
2023/01/25 04:08:39;;;;;;;10.40;9.90;;;;;;;1.16;100.00;93758.31;5010564;28;20187;-77
2023/01/25 04:11:07;;;;;;;11.13;10.43;;;;;;;1.17;100.00;93765.03;5010155;28;21310;-77
2023/01/25 04:13:35;;;;;;;12.67;11.87;;;;;;;1.16;100.00;93767.78;5009464;28;20210;-76
2023/01/25 04:16:06;;;;;;;13.20;12.20;;;;;;;1.14;100.00;93769.75;5007941;28;20233;-76
2023/01/25 04:18:32;;;;;;;12.33;11.43;;;;;;;1.12;100.00;93764.81;5008947;28;20200;-76
2023/01/25 04:20:57;;;;;;;13.80;12.57;;;;;;;1.17;100.00;93762.47;5009814;28;20231;-76
2023/01/25 04:23:24;;;;;;;12.33;11.57;;;;;;;1.20;100.00;93767.22;5009916;28;20246;-76
2023/01/25 04:25:57;;;;;;;10.33;9.73;;;;;;;1.30;100.00;93765.06;5009584;28;20753;-76
2023/01/25 04:28:24;;;;;;;11.37;10.63;;;;;;;1.21;100.00;93761.09;5010125;28;20235;-76
2023/01/25 04:30:49;;;;;;;11.67;10.87;;;;;;;1.15;100.00;93761.84;5007956;28;20223;-76
2023/01/25 04:33:15;;;;;;;12.27;11.60;;;;;;;1.25;100.00;93767.44;5010382;28;20470;-76
2023/01/25 04:35:41;;;;;;;11.13;10.53;;;;;;;1.30;100.00;93769.41;5009374;28;20238;-76
2023/01/25 04:38:06;;;;;;;11.87;11.17;;;;;;;1.15;100.00;93756.72;5010069;28;20214;-77
2023/01/25 04:40:32;;;;;;;11.00;10.20;;;;;;;1.18;100.00;93776.88;5008985;28;20246;-76
2023/01/25 04:42:57;;;;;;;11.17;10.47;;;;;;;1.03;100.00;93763.41;5009622;28;20277;-76
2023/01/25 04:45:24;;;;;;;11.70;10.90;;;;;;;1.08;100.00;93780.81;5008813;28;20219;-77
2023/01/25 04:47:58;;;;;;;12.17;11.37;;;;;;;1.11;100.00;93765.81;5009995;28;20188;-73
2023/01/25 04:50:23;;;;;;;12.77;11.97;;;;;;;1.18;100.00;93771.75;5006851;28;20241;-73
2023/01/25 04:52:49;;;;;;;11.33;10.60;;;;;;;1.22;100.00;93774.72;5009333;28;20249;-74
2023/01/25 04:55:14;;;;;;;11.70;10.83;;;;;;;1.16;100.00;93784.03;5008742;28;20215;-73
2023/01/25 04:57:40;;;;;;;12.03;11.30;;;;;;;1.21;100.00;93766.25;5010226;28;20191;-73
2023/01/25 05:00:06;;;;;;;11.07;10.40;;;;;;;1.07;100.00;93759.47;5008395;28;20223;-74
2023/01/25 05:02:31;;;;;;;13.37;12.47;;;;;;;1.11;100.00;93788.94;5009262;28;20210;-74
2023/01/25 05:04:57;;;;;;;11.17;10.37;;;;;;;1.15;100.00;93785.00;5008728;28;20227;-74
2023/01/25 05:07:22;;;;;;;11.17;10.47;;;;;;;1.18;100.00;93770.97;5008786;28;20176;-73
2023/01/25 05:09:47;;;;;;;11.33;10.70;;;;;;;1.03;100.00;93760.81;5008561;28;20237;-74
2023/01/25 05:12:13;;;;;;;12.37;11.53;;;;;;;1.19;100.00;93770.78;5009434;28;20198;-74
2023/01/25 05:14:38;;;;;;;11.97;11.17;;;;;;;1.11;100.00;93767.56;5007546;28;20250;-73
2023/01/25 05:17:05;;;;;;;11.33;10.63;;;;;;;1.22;100.00;93762.69;5008627;28;20191;-73
2023/01/25 05:19:31;;;;;;;10.80;10.20;;;;;;;1.11;100.00;93758.09;5009122;28;20223;-73
2023/01/25 05:21:56;;;;;;;11.73;11.03;;;;;;;0.92;100.00;93751.09;5009405;28;20252;-74
2023/01/25 05:24:22;;;;;;;11.57;10.77;;;;;;;0.99;100.00;93745.97;5008461;28;20249;-73
2023/01/25 05:26:59;;;;;;;10.77;10.07;;;;;;;0.93;100.00;93765.56;5009403;28;20215;-73
2023/01/25 05:29:35;;;;;;;11.67;10.87;;;;;;;0.99;100.00;93756.25;5007755;28;20241;-74
2023/01/25 05:32:03;;;;;;;12.17;11.40;;;;;;;1.08;100.00;93768.75;5008790;28;20207;-73
2023/01/25 05:34:28;;;;;;;12.17;11.37;;;;;;;1.13;100.00;93760.47;5008602;28;20245;-73
2023/01/25 05:36:53;;;;;;;10.97;10.13;;;;;;;1.06;100.00;93757.88;5009304;28;20238;-73
2023/01/25 05:39:19;;;;;;;12.07;11.30;;;;;;;1.04;100.00;93770.13;5007532;28;20234;-71
2023/01/25 05:41:44;;;;;;;11.93;11.13;;;;;;;0.88;100.00;93760.19;5009342;28;20765;-72
2023/01/25 05:44:10;;;;;;;10.63;9.80;;;;;;;1.05;100.00;93782.00;5011004;28;20282;-75
2023/01/25 05:46:35;;;;;;;11.10;10.30;;;;;;;1.03;100.00;93757.47;5012060;28;20187;-70
2023/01/25 05:49:01;;;;;;;11.50;10.73;;;;;;;1.01;100.00;93755.06;5012496;28;20206;-74
2023/01/25 05:51:26;;;;;;;11.87;11.10;;;;;;;1.12;100.00;93769.94;5012986;28;20265;-72
2023/01/25 05:53:55;;;;;;;13.47;12.33;;;;;;;1.01;100.00;93769.72;5012178;28;20194;-74
2023/01/25 05:56:21;;;;;;;13.03;11.87;;;;;;;1.07;100.00;93774.09;5013493;28;20191;-72
2023/01/25 05:58:46;;;;;;;10.90;10.23;;;;;;;1.11;100.00;93781.22;5012471;28;20257;-73
2023/01/25 06:01:12;;;;;;;11.80;10.97;;;;;;;1.30;100.00;93777.94;5012367;28;20246;-74
2023/01/25 06:03:37;;;;;;;12.27;11.53;;;;;;;1.15;98.89;93772.13;5011372;28;20720;-69
2023/01/25 06:06:03;;;;;;;11.87;11.00;;;;;;;0.94;100.00;93767.13;5011959;28;20242;-75
2023/01/25 06:08:29;;;;;;;11.53;10.70;;;;;;;1.03;100.00;93778.03;5012246;28;20191;-73
2023/01/25 06:10:55;;;;;;;12.40;11.57;;;;;;;0.99;100.00;93777.63;5011082;28;20298;-72
2023/01/25 06:13:21;;;;;;;12.30;11.40;;;;;;;0.97;100.00;93778.78;5012339;28;20199;-72
2023/01/25 06:15:56;;;;;;;13.07;12.17;;;;;;;0.99;100.00;93776.84;5012208;28;20238;-73
2023/01/25 06:18:23;;;;;;;13.67;12.30;;;;;;;1.03;100.00;93786.53;5012000;28;20211;-73
2023/01/25 06:20:49;;;;;;;13.77;12.43;;;;;;;1.03;100.00;93789.09;5011671;28;20792;-78
2023/01/25 06:23:14;;;;;;;11.93;11.13;;;;;;;0.92;100.00;93763.94;5012087;28;20211;-79
2023/01/25 06:25:39;;;;;;;13.13;12.23;;;;;;;0.96;99.11;93767.75;5011422;28;20238;-78
2023/01/25 06:28:05;;;;;;;11.73;10.93;;;;;;;1.01;99.01;93798.00;5012316;28;20172;-77
2023/01/25 06:30:30;;;;;;;12.17;11.17;;;;;;;0.80;100.00;93780.09;5012083;28;20219;-77
2023/01/25 06:33:00;;;;;;;13.27;12.37;;;;;;;0.73;100.00;93774.16;5011375;28;20184;-77
2023/01/25 06:35:26;;;;;;;13.30;12.37;;;;;;;0.98;100.00;93788.13;5012107;28;20228;-77
2023/01/25 06:37:55;;;;;;;12.80;11.83;;;;;;;1.02;99.18;93787.53;5011128;28;20218;-78
2023/01/25 06:40:20;;;;;;;12.73;11.83;;;;;;;0.83;100.00;93797.72;5010685;28;20238;-77
2023/01/25 06:42:45;;;;;;;13.33;12.30;;;;;;;0.91;100.00;93795.78;5011815;28;20266;-77
2023/01/25 06:45:11;;;;;;;12.23;11.40;;;;;;;0.87;100.00;93788.66;5011774;28;20302;-77
2023/01/25 06:47:36;;;;;;;11.67;10.87;;;;;;;0.92;100.00;93781.16;5011818;28;20195;-77
2023/01/25 06:50:02;;;;;;;12.80;11.93;;;;;;;0.94;100.00;93774.03;5012328;28;20227;-77
2023/01/25 06:52:27;;;;;;;13.10;12.20;;;;;;;0.98;100.00;93776.03;5011409;28;20227;-77
2023/01/25 06:54:52;;;;;;;13.33;12.43;;;;;;;0.87;100.00;93750.09;5011057;28;20242;-78
2023/01/25 06:57:18;;;;;;;12.17;11.37;;;;;;;1.05;100.00;93771.72;5012065;28;20274;-77
2023/01/25 06:59:43;;;;;;;12.43;11.63;;;;;;;1.18;99.48;93761.47;5011597;28;20234;-77
2023/01/25 07:02:15;;;;;;;11.97;11.00;;;;;;;1.10;99.74;93789.94;5010269;28;20206;-79
2023/01/25 07:04:43;;;;;;;13.67;12.67;;;;;;;1.06;100.00;93778.44;5011214;28;20279;-79
2023/01/25 07:07:09;;;;;;;12.60;11.60;;;;;;;0.96;100.00;93762.59;5009917;28;20175;-74
2023/01/25 07:09:35;;;;;;;14.63;13.53;;;;;;;0.96;100.00;93760.03;5011588;28;20243;-73
2023/01/25 07:12:03;;;;;;;13.90;12.67;;;;;;;1.20;100.00;93780.06;5027530;28;20211;-74
2023/01/25 07:14:29;;;;;;;13.63;12.53;;;;;;;1.34;100.00;93781.69;5006706;28;20326;-74
2023/01/25 07:16:54;;;;;;;13.43;12.27;;;;;;;1.11;100.00;93776.09;5011803;28;20188;-74
2023/01/25 07:19:19;;;;;;;13.20;12.23;;;;;;;1.14;100.00;93765.41;5009901;28;20223;-75
2023/01/25 07:21:46;;;;;;;13.77;12.77;;;;;;;1.08;99.97;93766.19;5009037;28;20206;-77
2023/01/25 07:24:14;;;;;;;14.60;13.20;;;;;;;1.24;100.00;93781.28;5007570;28;20288;-75
2023/01/25 07:26:40;;;;;;;14.30;13.20;;;;;;;1.17;100.00;93793.31;5008854;28;20191;-74
2023/01/25 07:29:08;;;;;;;14.10;13.10;;;;;;;1.16;100.00;93778.88;5007884;28;20210;-75
2023/01/25 07:31:34;;;;;;;15.47;13.97;;;;;;;1.17;99.80;93770.16;5009251;28;20188;-74
2023/01/25 07:33:59;;;;;;;15.67;14.13;;;;;;;1.14;100.00;93790.31;5007368;28;20214;-75
2023/01/25 07:36:25;;;;;;;15.43;13.90;;;;;;;1.14;100.00;93788.56;5008648;28;21139;-76
2023/01/25 07:38:55;;;;;;;15.40;14.07;;;;;;;0.92;100.00;93787.09;5007961;28;20227;-78
2023/01/25 07:41:21;;;;;;;14.60;13.40;;;;;;;1.16;100.00;93802.03;5008939;28;20219;-81
2023/01/25 07:43:46;;;;;;;14.50;13.17;;;;;;;1.11;100.00;93791.53;5008966;28;20223;-76
2023/01/25 07:46:12;;;;;;;15.23;13.40;;;;;;;0.90;100.00;93753.06;5006461;28;20505;-77
2023/01/25 07:48:46;;;;;;;13.87;12.77;;;;;;;1.10;100.00;93799.44;5006047;28;20194;-75
2023/01/25 07:51:22;;;;;;;14.33;13.23;;;;;;;1.18;100.00;93802.59;5006312;28;20238;-75
2023/01/25 07:53:59;;;;;;;14.33;13.10;;;;;;;1.33;100.00;93792.97;5008364;28;20234;-75
2023/01/25 07:56:27;;;;;;;15.43;14.13;;;;;;;1.29;100.00;93771.19;5008037;28;20211;-75
2023/01/25 07:58:54;;;;;;;15.53;14.23;;;;;;;1.33;100.00;93790.41;5008528;28;20194;-74
2023/01/25 08:01:21;;;;;;;16.70;15.10;;;;;;;1.30;100.00;93783.09;5005963;28;20188;-77
2023/01/25 08:03:47;;;;;;;16.63;15.00;;;;;;;1.23;100.00;93797.69;5007637;28;20219;-76
2023/01/25 08:06:12;;;;;;;18.07;13.90;;;;;;;1.10;100.00;93795.09;5007584;28;20229;-80
2023/01/25 08:08:46;;;;;;;14.87;13.53;;;;;;;1.22;100.00;93797.88;5008960;28;20230;-76
2023/01/25 08:11:19;;;;;;;16.70;14.73;;;;;;;1.15;100.00;93790.13;5001208;28;20251;-78
2023/01/25 08:13:48;;;;;;;16.90;15.17;;;;;;;1.03;100.00;93763.41;5007522;28;20183;-78
2023/01/25 08:16:16;;;;;;;16.97;15.27;;;;;;;1.28;100.00;93792.75;5008460;28;20238;-77
2023/01/25 08:18:42;;;;;;;15.73;14.33;;;;;;;1.19;100.00;93801.63;5005586;28;20203;-78
2023/01/25 08:21:08;;;;;;;15.80;14.40;;;;;;;1.09;100.00;93787.56;5008049;28;20262;-79
2023/01/25 08:23:34;;;;;;;16.30;14.70;;;;;;;1.16;100.00;93763.47;5007902;28;20214;-77
2023/01/25 08:26:04;;;;;;;15.50;14.27;;;;;;;1.39;100.00;93789.63;5007485;28;20215;-76
2023/01/25 08:28:29;;;;;;;16.07;14.47;;;;;;;1.36;100.00;93794.38;5008956;28;20192;-74
2023/01/25 08:31:02;;;;;;;18.10;15.10;;;;;;;1.40;100.00;93786.06;5008267;28;20227;-78
2023/01/25 08:33:28;;;;;;;15.53;13.87;;;;;;;1.38;100.00;93788.06;5007646;28;20223;-79
2023/01/25 08:35:55;;;;;;;17.00;15.40;;;;;;;1.52;100.00;93781.16;5007839;28;20219;-78
2023/01/25 08:38:21;;;;;;;15.03;13.63;;;;;;;1.29;100.00;93754.97;5009327;28;20202;-78
2023/01/25 08:40:46;;;;;;;16.77;15.00;;;;;;;1.70;100.00;93780.59;5008283;28;20219;-77
2023/01/25 08:43:11;;;;;;;14.97;13.40;;;;;;;1.68;100.00;93779.00;5006999;28;20199;-77
2023/01/25 08:45:37;;;;;;;19.70;15.40;;;;;;;1.72;100.00;93783.75;5008107;28;20261;-78
2023/01/25 08:48:02;;;;;;;16.67;14.83;;;;;;;1.34;100.00;93719.97;5006666;28;20172;-78
2023/01/25 08:50:27;;;;;;;17.57;15.83;;;;;;;1.78;100.00;93767.50;5007882;28;20234;-78
2023/01/25 08:52:53;;;;;;;17.40;15.60;;;;;;;1.89;100.00;93779.81;5007401;28;20199;-77
2023/01/25 08:55:18;;;;;;;17.00;15.43;;;;;;;1.83;100.00;93788.31;5007028;28;20254;-79
2023/01/25 08:57:44;;;;;;;17.50;15.97;;;;;;;1.80;100.00;93779.22;5009093;28;20250;-80
2023/01/25 09:00:09;;;;;;;16.17;14.67;;;;;;;1.71;100.00;93739.22;5006017;28;20227;-79
2023/01/25 09:02:35;;;;;;;18.40;16.50;;;;;;;1.68;100.00;93757.63;5007971;28;20225;-75
2023/01/25 09:05:00;;;;;;;16.63;15.23;;;;;;;2.02;100.00;93784.97;5006625;28;20389;-76
2023/01/25 09:07:26;;;;;;;17.17;15.47;;;;;;;1.93;100.00;93770.72;5007622;28;20199;-76
2023/01/25 09:09:51;;;;;;;17.70;15.77;;;;;;;2.14;100.00;93796.25;5007325;28;20227;-74
2023/01/25 09:12:16;;;;;;;16.73;15.23;;;;;;;2.11;99.89;93783.78;5009147;28;20195;-71
2023/01/25 09:14:42;;;;;;;16.10;14.63;;;;;;;2.17;100.00;93778.63;5007533;28;20235;-74
2023/01/25 09:17:08;;;;;;;16.97;15.37;;;;;;;2.18;100.00;93764.75;5007518;28;20191;-76
2023/01/25 09:19:34;;;;;;;17.73;15.90;;;;;;;2.35;98.80;93765.91;5007072;28;20640;-74
2023/01/25 09:21:59;;;;;;;16.57;14.97;;;;;;;2.46;96.60;93761.97;5005623;28;20210;-70
2023/01/25 09:24:24;;;;;;;16.70;15.23;;;;;;;2.41;95.88;93759.19;5006856;28;21066;-75
2023/01/25 09:26:50;;;;;;;17.43;15.67;;;;;;;2.15;97.09;93769.53;5007545;28;20180;-74
2023/01/25 09:29:15;;;;;;;16.63;14.90;;;;;;;2.26;97.69;93761.16;5006408;28;20303;-75
2023/01/25 09:31:43;;;;;;;17.13;15.33;;;;;;;2.31;98.17;93763.94;5007011;28;20208;-75
2023/01/25 09:34:11;;;;;;;18.43;16.20;;;;;;;1.99;98.08;93731.28;5003626;28;20179;-76
2023/01/25 09:36:37;;;;;;;19.37;16.70;;;;;;;2.24;98.11;93758.03;5007152;28;20183;-76
2023/01/25 09:39:03;;;;;;;17.63;16.07;;;;;;;2.15;98.42;93743.78;5005566;28;20263;-77
2023/01/25 09:42:13;;;;;;;19.50;17.50;;;;;;;2.26;99.26;93746.50;5007398;28;20184;-75
2023/01/25 09:45:22;;;;;;;16.00;14.47;;;;;;;2.10;99.14;93731.47;5009997;28;20243;-76
2023/01/25 09:47:59;;;;;;;18.07;16.30;;;;;;;2.16;99.93;93735.03;5003791;28;20298;-76
2023/01/25 09:50:35;;;;;;;17.80;16.00;;;;;;;2.08;100.00;93732.66;5006230;28;20253;-72
2023/01/25 09:53:20;;;;;;;16.83;15.13;;;;;;;1.96;100.00;93723.97;5005230;28;20199;-77
2023/01/25 09:56:03;;;;;;;18.73;16.53;;;;;;;1.98;100.00;93717.63;5006448;28;20226;-79
2023/01/25 09:58:35;;;;;;;17.57;15.00;;;;;;;2.01;100.00;93717.22;5008273;28;20198;-78
2023/01/25 10:01:19;;;;;;;20.80;16.80;;;;;;;2.21;100.00;93712.06;5007859;28;20231;-78
2023/01/25 10:03:55;;;;;;;17.30;15.67;;;;;;;2.28;100.00;93717.97;5030249;28;20211;-80
2023/01/25 10:06:35;;;;;;;18.17;16.27;;;;;;;2.29;100.00;93720.34;5006501;28;20275;-80
2023/01/25 10:09:27;;;;;;;16.17;14.90;;;;;;;2.51;99.16;93713.97;5006355;28;20192;-79
2023/01/25 10:11:52;;;;;;;15.97;14.53;;;;;;;2.42;99.35;93693.75;5007409;28;20216;-81
2023/01/25 10:14:18;;;;;;;16.13;14.70;;;;;;;2.56;99.29;93703.03;5007166;28;20230;-81
2023/01/25 10:16:46;;;;;;;15.50;14.13;;;;;;;2.37;99.30;93696.16;5007219;28;20180;-81
2023/01/25 10:19:33;;;;;;;17.30;15.67;;;;;;;2.21;100.00;93692.22;5006029;28;20241;-83
2023/01/25 10:22:22;;;;;;;15.90;14.53;;;;;;;2.14;100.00;93690.66;5005449;28;20184;-82
2023/01/25 10:24:53;;;;;;;15.90;14.47;;;;;;;2.01;100.00;93682.97;5005738;28;20235;-79
2023/01/25 10:27:38;;;;;;;16.07;14.67;;;;;;;1.92;100.00;93690.09;5031391;28;20202;-82
2023/01/25 10:30:26;;;;;;;16.10;14.60;;;;;;;2.00;100.00;93686.50;5009329;28;20626;-74
2023/01/25 10:32:56;;;;;;;30.37;28.10;;;;;;;1.97;100.00;93674.84;5011116;28;20214;-81
2023/01/25 10:35:30;;;;;;;34.83;32.43;;;;;;;2.12;100.00;93677.22;5010550;28;20227;-77
2023/01/25 10:38:04;;;;;;;16.73;15.37;;;;;;;2.20;100.00;93679.53;5011058;28;20202;-76
2023/01/25 10:40:38;;;;;;;14.60;13.47;;;;;;;2.28;100.00;93680.13;5010738;28;20254;-75
2023/01/25 10:43:10;;;;;;;13.90;12.50;;;;;;;2.41;100.00;93664.63;5009979;28;20202;-77
2023/01/25 10:45:37;;;;;;;15.67;14.37;;;;;;;2.43;100.00;93660.06;5009620;28;20223;-78
2023/01/25 10:48:08;;;;;;;15.07;13.87;;;;;;;2.52;99.32;93665.78;5009966;28;20176;-76
2023/01/25 10:50:45;;;;;;;15.70;14.37;;;;;;;2.54;98.84;93659.44;5009596;28;20239;-77
2023/01/25 10:53:27;;;;;;;14.87;13.73;;;;;;;2.51;99.17;93656.47;5010361;28;20195;-75
2023/01/25 10:56:18;;;;;;;15.40;14.00;;;;;;;2.47;98.41;93639.84;5009635;28;20242;-77
2023/01/25 10:58:46;;;;;;;16.30;14.80;;;;;;;2.46;99.35;93638.28;5010109;28;20188;-73
2023/01/25 11:01:27;;;;;;;15.17;14.07;;;;;;;2.50;99.72;93644.59;5011302;28;20231;-72
2023/01/25 11:03:53;;;;;;;15.17;13.87;;;;;;;2.39;98.46;93630.56;5007397;28;20222;-72
2023/01/25 11:06:36;;;;;;;14.07;13.07;;;;;;;2.58;98.54;93650.31;5009798;28;20894;-72
2023/01/25 11:09:20;;;;;;;14.63;13.43;;;;;;;2.59;98.36;93641.56;5010189;28;20199;-73
2023/01/25 11:12:00;;;;;;;14.77;13.67;;;;;;;2.72;97.36;93640.72;5009913;28;20187;-73
2023/01/25 11:14:29;;;;;;;13.47;12.47;;;;;;;2.54;96.77;93632.84;5008916;28;20492;-72
2023/01/25 11:16:56;;;;;;;14.60;13.50;;;;;;;2.32;98.82;93616.88;5010804;28;20199;-76
2023/01/25 11:19:39;;;;;;;14.30;13.30;;;;;;;2.40;97.61;93619.25;5009352;28;20242;-72
2023/01/25 11:22:18;;;;;;;16.20;14.73;;;;;;;2.51;97.02;93610.06;5009964;28;20184;-75
2023/01/25 11:24:44;;;;;;;15.97;14.47;;;;;;;2.65;97.46;93630.44;5008327;28;20279;-76
2023/01/25 11:27:24;;;;;;;15.47;14.17;;;;;;;2.70;97.84;93624.66;5009062;28;20222;-79